Time;durP1;ratioP1;P1;durP2;ratioP2;P2;SDS_P1;SDS_P2;PMS_P1;PMS_P2;Temp;Humidity;BMP_temperature;BMP_pressure;BME280_temperature;BME280_humidity;BME280_pressure;Samples;Min_cycle;Max_cycle;Signal;HPM_P1;HPM_P2
2021/12/07 00:01:28;;;;;;;46.83;33.00;;;8.50;76.10;;;;;;5003911;28;20220;-83
2021/12/07 00:03:56;;;;;;;57.60;34.93;;;8.50;76.20;;;;;;5007881;28;20780;-80
2021/12/07 00:06:23;;;;;;;48.23;30.23;;;8.50;76.20;;;;;;4998492;28;20234;-81
2021/12/07 00:08:54;;;;;;;48.10;30.67;;;8.50;76.00;;;;;;5007866;28;20305;-80
2021/12/07 00:11:24;;;;;;;36.60;30.57;;;8.50;76.10;;;;;;5005983;28;20243;-80
2021/12/07 00:13:51;;;;;;;40.43;28.13;;;8.40;75.60;;;;;;4998738;28;20261;-80
2021/12/07 00:16:18;;;;;;;54.47;31.60;;;8.40;75.60;;;;;;4995467;28;20366;-82
2021/12/07 00:18:47;;;;;;;69.87;31.70;;;8.40;75.60;;;;;;4997218;28;20575;-81
2021/12/07 00:21:16;;;;;;;46.30;28.30;;;8.40;75.60;;;;;;5001282;28;20601;-81
2021/12/07 00:23:43;;;;;;;90.63;36.50;;;8.40;76.30;;;;;;5005630;28;20313;-81
2021/12/07 00:26:12;;;;;;;61.70;32.57;;;8.40;75.60;;;;;;4998879;28;20748;-81
2021/12/07 00:28:40;;;;;;;72.50;31.97;;;8.50;75.80;;;;;;5002119;28;20204;-81
2021/12/07 00:31:13;;;;;;;116.60;36.83;;;8.40;75.60;;;;;;5008943;28;20221;-81
2021/12/07 00:33:47;;;;;;;45.67;30.87;;;8.50;75.70;;;;;;5006393;28;20868;-81
2021/12/07 00:36:16;;;;;;;37.87;30.93;;;8.40;75.40;;;;;;5001683;28;20202;-82
2021/12/07 00:38:43;;;;;;;55.13;31.10;;;8.50;75.50;;;;;;5004609;28;20240;-81
2021/12/07 00:41:10;;;;;;;43.10;30.73;;;8.50;75.50;;;;;;5003073;28;20233;-81
2021/12/07 00:43:37;;;;;;;40.60;29.53;;;8.40;75.00;;;;;;5005788;28;20306;-81
2021/12/07 00:46:08;;;;;;;66.20;30.07;;;8.50;75.10;;;;;;5001825;28;20726;-82
2021/12/07 00:48:35;;;;;;;61.10;27.17;;;8.50;75.00;;;;;;4998954;28;20247;-82
2021/12/07 00:51:02;;;;;;;91.13;37.73;;;8.50;74.90;;;;;;5003460;28;20237;-81
2021/12/07 00:53:29;;;;;;;44.00;30.83;;;8.40;74.00;;;;;;5007583;28;20304;-80
2021/12/07 00:56:00;;;;;;;59.83;33.00;;;8.40;74.00;;;;;;5005345;28;20293;-81
2021/12/07 00:58:28;;;;;;;43.77;32.80;;;8.40;74.10;;;;;;5006560;28;20505;-81
2021/12/07 01:00:58;;;;;;;47.33;35.07;;;8.40;74.30;;;;;;5005070;28;20316;-80
2021/12/07 01:03:28;;;;;;;50.20;32.60;;;8.40;74.00;;;;;;5006277;28;20922;-80
2021/12/07 01:06:14;;;;;;;37.97;31.53;;;8.40;74.00;;;;;;5001697;28;20207;-80
2021/12/07 01:09:00;;;;;;;49.17;33.30;;;8.40;74.10;;;;;;4999971;28;20212;-81
2021/12/07 01:25:18;;;;;;;66.30;35.47;;;8.40;74.10;;;;;;5001957;28;20311;-81
2021/12/07 01:27:49;;;;;;;37.23;33.40;;;8.30;74.10;;;;;;5007622;28;20293;-81
2021/12/07 01:30:20;;;;;;;38.17;31.03;;;8.30;74.30;;;;;;5005465;28;20208;-82
2021/12/07 01:38:31;;;;;;;43.00;30.60;;;8.30;74.30;;;;;;4994735;28;20302;-80
2021/12/07 01:41:03;;;;;;;48.50;34.73;;;8.30;74.30;;;;;;5000890;28;20316;-81
2021/12/07 01:44:05;;;;;;;46.57;29.73;;;8.30;74.20;;;;;;5010743;28;20235;-80
2021/12/07 01:46:47;;;;;;;38.43;29.80;;;8.30;74.30;;;;;;5008133;28;20218;-81
2021/12/07 02:00:18;;;;;;;115.87;41.10;;;8.20;73.90;;;;;;5021625;28;20326;-82
2021/12/07 02:02:45;;;;;;;39.63;32.90;;;8.20;74.00;;;;;;5007117;28;20232;-81
2021/12/07 02:05:13;;;;;;;58.73;34.60;;;8.20;73.90;;;;;;5006537;28;20232;-80
2021/12/07 02:07:42;;;;;;;39.47;34.43;;;8.20;73.80;;;;;;5006745;28;20221;-81
2021/12/07 02:10:15;;;;;;;73.07;33.50;;;8.20;73.90;;;;;;5010210;28;20203;-81
2021/12/07 02:12:45;;;;;;;33.53;29.93;;;8.30;73.90;;;;;;5008971;28;20675;-81
2021/12/07 02:15:14;;;;;;;45.50;32.07;;;8.20;73.60;;;;;;5010129;28;20312;-82
2021/12/07 02:17:41;;;;;;;40.87;31.97;;;8.20;73.50;;;;;;5012921;28;20292;-81
2021/12/07 02:20:10;;;;;;;56.97;32.50;;;8.30;73.20;;;;;;5010954;28;20268;-82
2021/12/07 02:22:38;;;;;;;44.97;36.03;;;8.30;73.20;;;;;;5008047;28;20211;-81
2021/12/07 02:25:08;;;;;;;40.10;33.53;;;8.20;73.00;;;;;;5009402;28;20334;-81
2021/12/07 02:27:35;;;;;;;61.23;37.23;;;8.20;72.90;;;;;;5009790;28;20667;-81
2021/12/07 02:30:03;;;;;;;34.27;29.80;;;8.20;72.90;;;;;;5010644;28;20235;-82
2021/12/07 02:32:30;;;;;;;37.53;34.20;;;8.30;73.10;;;;;;5009980;28;20320;-81
2021/12/07 02:34:59;;;;;;;48.63;30.83;;;8.20;73.00;;;;;;5007248;28;20276;-82
2021/12/07 02:37:29;;;;;;;41.80;31.27;;;8.20;72.90;;;;;;5010299;28;20200;-81
2021/12/07 02:39:58;;;;;;;45.80;36.93;;;8.30;72.90;;;;;;5009696;28;20325;-81
2021/12/07 02:42:27;;;;;;;38.70;30.77;;;8.20;72.60;;;;;;4995444;28;20322;-81
2021/12/07 02:44:54;;;;;;;35.00;30.67;;;8.20;72.70;;;;;;5007519;28;20228;-81
2021/12/07 02:47:21;;;;;;;35.27;31.00;;;8.20;72.80;;;;;;5008637;28;20201;-81
2021/12/07 02:49:49;;;;;;;34.90;30.40;;;8.20;72.90;;;;;;5009437;28;20759;-81
2021/12/07 02:52:17;;;;;;;51.73;29.50;;;8.20;72.80;;;;;;5009086;28;20237;-81
2021/12/07 02:54:49;;;;;;;70.47;36.47;;;8.20;72.90;;;;;;5006439;28;20222;-81
2021/12/07 02:57:19;;;;;;;40.50;32.77;;;8.20;72.80;;;;;;5008538;28;20207;-81
2021/12/07 02:59:55;;;;;;;35.20;30.77;;;8.20;72.90;;;;;;5009500;28;20259;-79
2021/12/07 03:02:23;;;;;;;45.50;37.43;;;8.20;73.00;;;;;;5010361;28;20766;-80
2021/12/07 03:04:59;;;;;;;44.23;34.87;;;8.20;73.10;;;;;;5008269;28;20238;-79
2021/12/07 03:07:47;;;;;;;50.53;29.53;;;8.20;73.20;;;;;;5010025;28;20213;-79
2021/12/07 03:26:43;;;;;;;44.80;38.10;;;8.10;73.60;;;;;;4999970;28;20237;-80
2021/12/07 03:29:12;;;;;;;40.30;31.03;;;8.00;73.60;;;;;;5009814;28;20289;-80
2021/12/07 03:31:38;;;;;;;45.60;32.20;;;8.00;73.60;;;;;;5003836;28;20222;-80
2021/12/07 03:34:05;;;;;;;40.37;31.80;;;8.00;73.60;;;;;;5009412;28;20336;-80
2021/12/07 03:36:33;;;;;;;41.07;36.70;;;7.90;73.50;;;;;;5010151;28;20266;-80
2021/12/07 03:39:01;;;;;;;56.63;32.07;;;7.90;73.60;;;;;;5008473;28;20231;-79
2021/12/07 03:41:28;;;;;;;46.77;32.40;;;7.90;73.70;;;;;;5009617;28;20363;-80
2021/12/07 03:43:56;;;;;;;41.20;36.50;;;7.80;73.60;;;;;;5017188;28;20255;-80
2021/12/07 03:46:25;;;;;;;68.07;34.40;;;7.90;73.70;;;;;;5024564;28;20193;-80
2021/12/07 03:48:52;;;;;;;37.13;33.23;;;7.80;73.70;;;;;;5011308;28;20357;-80
2021/12/07 03:51:19;;;;;;;69.03;37.07;;;7.80;74.50;;;;;;5014936;28;20198;-80
2021/12/07 03:53:46;;;;;;;48.03;35.63;;;7.80;73.90;;;;;;5018003;28;20218;-80
2021/12/07 03:56:15;;;;;;;36.83;31.07;;;7.70;73.80;;;;;;5009634;28;20210;-81
2021/12/07 03:58:43;;;;;;;51.57;35.63;;;7.70;73.80;;;;;;5006683;28;20213;-80
2021/12/07 04:01:11;;;;;;;55.57;32.53;;;7.70;73.80;;;;;;5004697;28;20965;-80
2021/12/07 04:03:41;;;;;;;60.37;32.23;;;7.70;73.80;;;;;;5004528;28;20669;-80
2021/12/07 04:06:08;;;;;;;44.63;40.03;;;7.60;73.70;;;;;;4993211;28;20248;-81
2021/12/07 04:08:38;;;;;;;79.93;39.73;;;7.60;73.70;;;;;;5007198;28;20258;-80
2021/12/07 04:11:05;;;;;;;44.10;35.10;;;7.60;73.70;;;;;;5008701;28;20295;-80
2021/12/07 04:13:32;;;;;;;60.30;34.20;;;7.60;73.70;;;;;;5005359;28;20819;-80
2021/12/07 04:15:59;;;;;;;71.10;38.77;;;7.60;73.80;;;;;;5012398;28;20255;-81
2021/12/07 04:18:27;;;;;;;39.83;34.80;;;7.50;73.80;;;;;;5006877;28;20654;-80
2021/12/07 04:20:56;;;;;;;42.90;35.07;;;7.50;73.90;;;;;;5010605;28;20236;-82
2021/12/07 04:23:23;;;;;;;49.50;34.77;;;7.50;74.00;;;;;;5023461;28;20230;-81
2021/12/07 04:25:50;;;;;;;36.40;33.47;;;7.40;74.00;;;;;;5018086;28;20206;-80
2021/12/07 04:28:18;;;;;;;46.80;36.20;;;7.40;74.10;;;;;;5010929;28;20288;-80
2021/12/07 04:30:46;;;;;;;41.30;36.87;;;7.40;74.20;;;;;;5008736;28;20293;-80
2021/12/07 04:33:14;;;;;;;41.83;35.13;;;7.40;74.30;;;;;;5008180;28;20308;-80
2021/12/07 04:35:51;;;;;;;51.57;35.47;;;7.30;74.30;;;;;;5007001;28;20294;-80
2021/12/07 04:38:19;;;;;;;43.73;39.20;;;7.30;74.30;;;;;;5008486;28;20646;-81
2021/12/07 04:40:46;;;;;;;39.77;33.93;;;7.30;74.40;;;;;;5006117;28;20247;-80
2021/12/07 04:43:14;;;;;;;69.47;40.00;;;7.30;74.40;;;;;;5004090;28;20200;-80
2021/12/07 04:45:55;;;;;;;37.57;31.67;;;7.20;74.40;;;;;;5010937;28;20339;-80
2021/12/07 04:48:58;;;;;;;43.27;39.13;;;7.20;74.40;;;;;;5004217;28;20210;-80
2021/12/07 04:59:40;;;;;;;46.50;38.30;;;7.10;74.40;;;;;;5002129;28;20219;-82
2021/12/07 05:02:07;;;;;;;48.17;43.70;;;7.10;74.30;;;;;;5007482;28;20244;-82
2021/12/07 05:04:36;;;;;;;48.40;42.30;;;7.00;74.20;;;;;;5007232;28;20660;-81
2021/12/07 05:07:09;;;;;;;45.23;39.57;;;7.00;74.20;;;;;;5008458;28;20280;-81
2021/12/07 05:10:06;;;;;;;47.83;43.00;;;6.90;74.20;;;;;;5006822;28;20589;-82
2021/12/07 05:12:53;;;;;;;42.37;36.17;;;6.90;74.30;;;;;;5004959;28;20211;-81
2021/12/07 05:15:28;;;;;;;42.47;38.47;;;6.80;74.20;;;;;;5021829;28;20238;-81
2021/12/07 05:37:45;;;;;;;41.67;37.33;;;6.60;74.80;;;;;;4946487;28;20227;-81
2021/12/07 05:40:14;;;;;;;46.77;42.10;;;6.50;74.70;;;;;;4947530;28;20240;-82
2021/12/07 05:42:43;;;;;;;41.00;36.40;;;6.50;74.60;;;;;;4979818;28;20289;-82
2021/12/07 05:45:14;;;;;;;44.23;37.27;;;6.50;74.50;;;;;;5008378;28;21012;-80
2021/12/07 05:47:41;;;;;;;45.93;41.73;;;6.50;74.70;;;;;;5005986;28;20212;-81
2021/12/07 05:50:11;;;;;;;49.60;45.27;;;6.40;74.60;;;;;;5008187;28;20211;-82
2021/12/07 05:52:38;;;;;;;51.60;47.70;;;6.40;74.60;;;;;;5006622;28;20293;-81
2021/12/07 05:55:06;;;;;;;53.07;47.17;;;6.40;74.60;;;;;;5007462;28;20334;-80
2021/12/07 05:57:33;;;;;;;48.97;44.20;;;6.40;74.60;;;;;;5004305;28;20206;-81
2021/12/07 06:00:01;;;;;;;64.43;48.83;;;6.40;74.70;;;;;;5007202;28;20322;-81
2021/12/07 06:02:28;;;;;;;48.70;42.40;;;6.30;74.50;;;;;;5006542;28;20212;-81
2021/12/07 06:04:55;;;;;;;72.30;43.97;;;6.30;74.50;;;;;;5003205;28;20314;-81
2021/12/07 06:07:22;;;;;;;52.47;43.50;;;6.30;74.50;;;;;;5007486;28;20573;-80
2021/12/07 06:09:49;;;;;;;53.47;47.80;;;6.20;74.40;;;;;;5016217;28;20200;-81
2021/12/07 06:12:16;;;;;;;64.83;44.00;;;6.20;74.40;;;;;;5011998;28;20745;-81
2021/12/07 06:14:44;;;;;;;58.27;46.37;;;6.20;74.50;;;;;;4999569;28;20307;-81
2021/12/07 06:17:13;;;;;;;59.83;43.70;;;6.20;74.50;;;;;;5005027;28;20289;-81
2021/12/07 06:19:40;;;;;;;50.17;45.13;;;6.20;74.50;;;;;;5007958;28;20743;-80
2021/12/07 06:22:09;;;;;;;54.70;44.70;;;6.10;74.50;;;;;;5010411;28;20238;-79
2021/12/07 06:24:36;;;;;;;67.93;49.20;;;6.10;74.50;;;;;;5009565;28;20225;-80
2021/12/07 06:27:03;;;;;;;64.93;51.27;;;6.10;74.60;;;;;;5010710;28;20746;-80
2021/12/07 06:29:30;;;;;;;48.27;42.77;;;6.10;74.90;;;;;;5009724;28;20294;-80
2021/12/07 06:31:57;;;;;;;72.77;50.90;;;6.10;75.00;;;;;;5007944;28;20233;-81
2021/12/07 06:34:25;;;;;;;62.27;45.60;;;6.00;75.00;;;;;;4995648;28;20314;-80
2021/12/07 06:36:52;;;;;;;50.60;46.23;;;6.00;75.20;;;;;;5009892;28;20274;-80
2021/12/07 06:39:20;;;;;;;66.70;44.53;;;6.10;75.40;;;;;;5003683;28;20289;-80
2021/12/07 06:41:48;;;;;;;51.00;47.07;;;6.00;75.40;;;;;;5010604;28;20323;-80
2021/12/07 06:44:15;;;;;;;52.67;47.53;;;6.00;75.40;;;;;;5010775;28;20643;-80
2021/12/07 06:46:42;;;;;;;61.27;49.77;;;6.00;75.50;;;;;;5009580;28;20253;-80
2021/12/07 06:49:09;;;;;;;75.13;56.67;;;6.00;75.50;;;;;;5007637;28;20213;-80
2021/12/07 06:51:37;;;;;;;51.10;46.60;;;6.00;75.50;;;;;;5012566;28;20255;-80
2021/12/07 06:54:04;;;;;;;57.03;51.80;;;6.00;75.60;;;;;;5009738;28;20304;-80
2021/12/07 06:56:31;;;;;;;52.80;48.17;;;5.90;75.50;;;;;;5011409;28;20202;-81
2021/12/07 06:58:58;;;;;;;63.33;41.20;;;5.90;75.50;;;;;;5008060;28;20488;-80
2021/12/07 07:01:24;;;;;;;54.60;48.83;;;5.90;75.40;;;;;;5010488;28;20267;-80
2021/12/07 07:03:52;;;;;;;51.73;46.67;;;6.00;75.50;;;;;;5009037;28;20267;-80
2021/12/07 07:06:19;;;;;;;57.70;52.77;;;5.90;75.20;;;;;;5010360;28;20205;-81
2021/12/07 07:08:50;;;;;;;53.23;48.47;;;5.90;75.20;;;;;;5009389;28;20248;-80
2021/12/07 07:11:17;;;;;;;61.70;56.70;;;5.90;75.10;;;;;;5009762;28;20210;-80
2021/12/07 07:13:45;;;;;;;54.33;49.00;;;5.90;75.00;;;;;;5009829;28;20230;-80
2021/12/07 07:16:12;;;;;;;65.10;54.30;;;5.90;75.00;;;;;;5009168;28;20285;-80
2021/12/07 07:18:39;;;;;;;50.57;46.03;;;5.90;75.00;;;;;;5010104;28;20233;-80
2021/12/07 07:21:07;;;;;;;54.43;49.43;;;5.80;74.90;;;;;;5007585;28;20218;-79
2021/12/07 07:23:38;;;;;;;86.73;55.70;;;5.80;74.90;;;;;;5004694;28;20577;-80
2021/12/07 07:26:07;;;;;;;69.87;54.93;;;5.80;74.90;;;;;;4999190;28;21129;-80
2021/12/07 07:28:35;;;;;;;55.37;50.13;;;5.80;74.90;;;;;;5004965;28;20301;-80
2021/12/07 07:31:05;;;;;;;62.33;56.40;;;5.80;75.00;;;;;;5009676;28;20252;-79
2021/12/07 07:33:32;;;;;;;52.53;47.47;;;5.80;74.90;;;;;;5007720;28;20257;-80
2021/12/07 07:35:59;;;;;;;60.47;54.67;;;5.70;74.90;;;;;;5009924;28;20233;-80
2021/12/07 07:38:26;;;;;;;60.97;49.27;;;5.70;74.90;;;;;;5006904;28;20198;-80
2021/12/07 07:40:54;;;;;;;61.73;56.77;;;5.70;75.00;;;;;;5008313;28;20275;-80
2021/12/07 07:43:22;;;;;;;60.07;54.43;;;5.60;75.00;;;;;;5007998;28;20610;-80
2021/12/07 07:45:52;;;;;;;62.93;48.73;;;5.60;75.10;;;;;;5009947;28;20294;-80
2021/12/07 07:48:20;;;;;;;61.87;57.17;;;5.60;75.20;;;;;;5006531;28;20262;-80
2021/12/07 07:50:49;;;;;;;58.73;53.63;;;5.50;75.10;;;;;;5030385;28;20201;-80
2021/12/07 07:53:17;;;;;;;51.83;46.77;;;5.50;75.20;;;;;;5010643;28;20206;-80
2021/12/07 07:55:44;;;;;;;51.17;47.17;;;5.50;75.20;;;;;;5010840;28;20314;-80
2021/12/07 07:58:12;;;;;;;58.43;52.53;;;5.50;75.20;;;;;;5008399;28;20293;-80
2021/12/07 08:00:42;;;;;;;58.93;53.93;;;5.50;75.30;;;;;;5009426;28;20194;-80
2021/12/07 08:03:10;;;;;;;63.07;57.50;;;5.50;76.00;;;;;;5008686;28;20292;-80
2021/12/07 08:05:37;;;;;;;59.20;54.27;;;5.50;75.30;;;;;;5008106;28;20221;-80
2021/12/07 08:08:04;;;;;;;52.83;48.37;;;5.50;75.30;;;;;;5008788;28;20707;-80
2021/12/07 08:10:32;;;;;;;60.33;54.70;;;5.50;75.40;;;;;;5009791;28;20292;-80
2021/12/07 08:13:00;;;;;;;55.60;50.30;;;5.50;75.40;;;;;;5009007;28;20208;-80
2021/12/07 08:15:29;;;;;;;59.40;54.37;;;5.40;75.30;;;;;;5008606;28;20658;-81
2021/12/07 08:17:58;;;;;;;59.60;54.27;;;5.40;75.30;;;;;;5007292;28;20287;-80
2021/12/07 08:20:25;;;;;;;57.90;52.70;;;5.40;75.30;;;;;;5007895;28;20284;-81
2021/12/07 08:22:52;;;;;;;56.53;51.70;;;5.40;75.40;;;;;;5009598;28;20336;-80
2021/12/07 08:25:19;;;;;;;63.93;56.93;;;5.40;75.50;;;;;;5009481;28;20257;-81
2021/12/07 08:27:47;;;;;;;59.07;54.17;;;5.40;75.50;;;;;;5008862;28;20220;-80
2021/12/07 08:30:16;;;;;;;118.27;63.47;;;5.40;75.50;;;;;;5004122;28;20293;-81
2021/12/07 08:32:45;;;;;;;57.33;51.80;;;5.40;75.50;;;;;;4998170;28;20290;-79
2021/12/07 08:35:14;;;;;;;88.47;59.53;;;5.40;75.60;;;;;;4999404;28;20669;-80
2021/12/07 08:37:41;;;;;;;62.77;57.40;;;5.40;75.70;;;;;;5009780;28;20293;-81
2021/12/07 08:40:09;;;;;;;65.77;59.33;;;5.40;75.80;;;;;;5009240;28;20247;-80
2021/12/07 08:42:37;;;;;;;78.50;58.87;;;5.40;76.00;;;;;;5004321;28;20245;-80
2021/12/07 08:45:05;;;;;;;62.33;56.93;;;5.40;76.20;;;;;;5006374;28;20225;-77
2021/12/07 08:47:32;;;;;;;66.50;60.17;;;5.40;76.30;;;;;;5006348;28;20210;-75
2021/12/07 08:49:59;;;;;;;62.13;56.33;;;5.50;76.40;;;;;;5012594;28;20729;-78
2021/12/07 08:52:28;;;;;;;59.67;53.87;;;5.50;76.60;;;;;;5010751;28;20291;-76
2021/12/07 09:00:24;;;;;;;69.03;63.53;;;5.50;76.90;;;;;;5008453;28;20290;-74
2021/12/07 09:02:51;;;;;;;72.50;65.20;;;5.60;77.00;;;;;;5007971;28;20323;-75
2021/12/07 09:05:18;;;;;;;66.43;60.53;;;5.70;77.10;;;;;;5007730;28;20319;-76
2021/12/07 09:07:47;;;;;;;78.30;66.27;;;5.70;77.10;;;;;;5007400;28;20210;-82
2021/12/07 09:10:15;;;;;;;66.23;60.03;;;5.80;77.10;;;;;;5008365;28;20206;-78
2021/12/07 09:12:42;;;;;;;65.93;60.43;;;5.80;77.00;;;;;;5009232;28;20204;-78
2021/12/07 09:15:10;;;;;;;71.47;65.63;;;5.80;76.90;;;;;;5007682;28;20222;-79
2021/12/07 09:17:37;;;;;;;75.53;60.00;;;5.90;77.10;;;;;;5006359;28;20203;-76
2021/12/07 09:20:05;;;;;;;58.63;53.43;;;5.90;77.00;;;;;;5007404;28;20640;-78
2021/12/07 09:22:32;;;;;;;67.67;56.10;;;5.90;76.80;;;;;;5007636;28;20265;-79
2021/12/07 09:25:01;;;;;;;60.50;54.37;;;6.00;76.90;;;;;;5007920;28;20225;-79
2021/12/07 09:27:28;;;;;;;63.23;56.77;;;6.10;77.00;;;;;;5007926;28;20319;-75
2021/12/07 09:29:55;;;;;;;71.57;52.27;;;6.10;77.00;;;;;;5006433;28;20204;-76
2021/12/07 09:32:22;;;;;;;53.33;49.00;;;6.10;76.80;;;;;;5008773;28;20203;-74
2021/12/07 09:34:49;;;;;;;61.80;55.40;;;6.20;76.90;;;;;;5006841;28;20269;-77
2021/12/07 09:37:16;;;;;;;65.33;46.00;;;6.20;76.80;;;;;;5006714;28;20212;-82
2021/12/07 09:39:43;;;;;;;55.10;49.67;;;6.30;76.80;;;;;;5005680;28;20204;-81
2021/12/07 09:42:12;;;;;;;53.20;48.47;;;6.30;76.80;;;;;;5008588;28;20864;-81
2021/12/07 09:44:38;;;;;;;56.33;50.73;;;6.50;76.90;;;;;;5007656;28;20222;-78
2021/12/07 09:47:06;;;;;;;54.67;49.67;;;6.40;77.50;;;;;;5007592;28;20205;-78
2021/12/07 09:49:32;;;;;;;52.93;44.20;;;6.40;76.50;;;;;;5008076;28;20271;-76
2021/12/07 09:51:59;;;;;;;54.67;48.90;;;6.40;76.50;;;;;;5009460;28;20676;-79
2021/12/07 09:54:27;;;;;;;51.93;46.87;;;6.50;76.50;;;;;;5005221;28;20220;-76
2021/12/07 09:56:54;;;;;;;52.63;43.93;;;6.50;76.40;;;;;;5010453;28;20201;-77
2021/12/07 09:59:22;;;;;;;46.20;41.73;;;6.60;76.50;;;;;;5002530;28;20302;-78
2021/12/07 10:01:49;;;;;;;51.87;46.57;;;6.60;76.50;;;;;;5009196;28;20311;-75
2021/12/07 10:04:18;;;;;;;49.77;45.27;;;6.70;76.50;;;;;;5011286;28;20270;-82
2021/12/07 10:06:46;;;;;;;47.30;43.03;;;6.70;76.50;;;;;;5012552;28;20211;-77
2021/12/07 10:09:13;;;;;;;43.43;39.57;;;6.80;76.60;;;;;;5011701;28;20293;-77
2021/12/07 10:11:40;;;;;;;55.77;46.70;;;6.80;76.50;;;;;;5011266;28;20264;-77
2021/12/07 10:14:07;;;;;;;49.70;41.47;;;6.80;76.50;;;;;;5011796;28;20331;-76
2021/12/07 10:16:35;;;;;;;54.07;44.87;;;6.90;76.50;;;;;;5009885;28;20208;-77
2021/12/07 10:19:02;;;;;;;49.17;43.17;;;6.90;76.40;;;;;;5010639;28;20228;-76
2021/12/07 10:21:38;;;;;;;48.27;42.03;;;6.90;76.30;;;;;;5011245;28;20622;-75
2021/12/07 10:24:10;;;;;;;51.80;46.43;;;7.00;76.20;;;;;;5009340;28;20261;-76
2021/12/07 10:26:39;;;;;;;49.20;41.60;;;7.00;76.20;;;;;;5011764;28;20236;-80
2021/12/07 10:29:12;;;;;;;46.17;39.67;;;7.00;76.10;;;;;;5009750;28;20202;-79
2021/12/07 10:31:42;;;;;;;54.53;41.53;;;7.00;76.10;;;;;;5008472;28;20291;-77
2021/12/07 10:34:14;;;;;;;46.97;42.57;;;7.10;76.20;;;;;;5010801;28;20321;-76
2021/12/07 10:36:44;;;;;;;47.20;40.97;;;7.10;76.00;;;;;;5011872;28;20242;-76
2021/12/07 10:39:13;;;;;;;49.97;45.37;;;7.10;76.00;;;;;;5009812;28;20847;-77
2021/12/07 10:41:43;;;;;;;49.87;44.93;;;7.20;76.00;;;;;;5010320;28;20312;-82
2021/12/07 10:44:11;;;;;;;46.87;38.37;;;7.20;75.80;;;;;;5010303;28;20307;-77
2021/12/07 10:46:43;;;;;;;54.00;42.07;;;7.20;75.90;;;;;;5009995;28;20770;-77
2021/12/07 10:49:17;;;;;;;44.97;40.67;;;7.30;76.30;;;;;;5010394;28;20301;-81
2021/12/07 10:52:27;;;;;;;42.90;38.83;;;7.30;76.10;;;;;;5009219;28;20303;-76
2021/12/07 10:55:01;;;;;;;44.67;39.10;;;7.40;76.20;;;;;;4985958;28;20233;-77
2021/12/07 10:57:32;;;;;;;46.67;41.67;;;7.40;76.10;;;;;;5013177;28;20201;-77
2021/12/07 11:00:15;;;;;;;54.47;43.87;;;7.40;76.20;;;;;;5009607;28;20218;-79
2021/12/07 11:02:46;;;;;;;55.03;39.27;;;7.50;76.20;;;;;;5010112;28;20239;-80
2021/12/07 11:05:17;;;;;;;45.67;41.07;;;7.50;76.10;;;;;;5008915;28;20814;-77
2021/12/07 11:07:44;;;;;;;45.47;39.20;;;7.60;76.10;;;;;;5008076;28;20731;-75
2021/12/07 11:10:16;;;;;;;52.13;39.60;;;7.70;76.10;;;;;;5008637;28;20250;-77
2021/12/07 11:12:50;;;;;;;43.77;39.70;;;7.70;75.90;;;;;;5000535;28;20285;-76
2021/12/07 11:15:24;;;;;;;45.00;40.60;;;7.80;76.00;;;;;;5005289;28;20226;-77
2021/12/07 11:17:54;;;;;;;46.43;40.77;;;7.80;76.00;;;;;;5009349;28;20213;-78
2021/12/07 11:20:21;;;;;;;55.83;38.17;;;7.80;76.00;;;;;;5010562;28;20302;-77
2021/12/07 11:22:52;;;;;;;46.20;33.20;;;7.90;75.60;;;;;;5010489;28;20338;-76
2021/12/07 11:31:14;;;;;;;47.40;34.53;;;7.90;75.10;;;;;;4986776;28;20231;-77
2021/12/07 11:33:42;;;;;;;40.67;34.37;;;7.90;74.90;;;;;;4990875;28;20309;-81
2021/12/07 11:36:17;;;;;;;49.50;37.53;;;8.00;75.10;;;;;;5002411;28;20295;-76
2021/12/07 11:38:44;;;;;;;39.20;34.53;;;7.90;74.90;;;;;;5010449;28;20298;-76
2021/12/07 11:41:15;;;;;;;34.13;30.87;;;8.00;75.00;;;;;;5010559;28;20212;-78
2021/12/07 11:43:54;;;;;;;40.20;36.10;;;8.00;74.90;;;;;;5010174;28;20243;-76
2021/12/07 11:46:23;;;;;;;42.07;33.10;;;8.00;74.70;;;;;;5010327;28;20288;-80
2021/12/07 11:49:05;;;;;;;43.33;28.27;;;8.00;74.70;;;;;;5010373;28;20944;-78
2021/12/07 11:51:32;;;;;;;40.53;30.97;;;8.00;74.60;;;;;;5010797;28;20317;-76
2021/12/07 11:53:59;;;;;;;49.07;37.57;;;8.00;74.80;;;;;;5010416;28;20309;-76
2021/12/07 11:56:26;;;;;;;46.20;34.43;;;8.00;74.80;;;;;;5009080;28;20673;-76
2021/12/07 11:58:54;;;;;;;41.07;35.53;;;8.00;74.90;;;;;;5009851;28;20245;-76
2021/12/07 12:01:22;;;;;;;46.17;32.00;;;8.10;75.00;;;;;;5010094;28;20293;-75
2021/12/07 12:03:49;;;;;;;41.70;32.33;;;8.00;74.90;;;;;;5009988;28;20233;-76
2021/12/07 12:06:17;;;;;;;39.23;33.87;;;8.00;74.90;;;;;;5008986;28;20214;-78
2021/12/07 12:08:44;;;;;;;48.30;35.57;;;8.10;75.00;;;;;;5009490;28;20233;-78
2021/12/07 12:11:20;;;;;;;39.63;31.23;;;8.00;74.90;;;;;;5009405;28;20675;-79
2021/12/07 12:14:00;;;;;;;39.53;29.67;;;8.10;75.00;;;;;;5009289;28;20667;-77
2021/12/07 12:16:37;;;;;;;42.83;32.50;;;8.10;75.10;;;;;;5008962;28;20556;-77
2021/12/07 12:19:14;;;;;;;50.73;31.80;;;8.10;75.10;;;;;;5009386;28;20709;-77
2021/12/07 12:21:51;;;;;;;41.80;37.83;;;8.10;75.10;;;;;;5009966;28;20270;-80
2021/12/07 12:24:30;;;;;;;35.00;31.70;;;8.10;75.10;;;;;;5009753;28;20322;-76
2021/12/07 12:27:07;;;;;;;39.40;32.90;;;8.10;75.20;;;;;;5008359;28;20735;-76
2021/12/07 12:29:38;;;;;;;41.83;33.03;;;8.10;75.30;;;;;;5009150;28;20207;-80
2021/12/07 12:32:06;;;;;;;36.50;32.57;;;8.10;75.30;;;;;;5009624;28;20314;-76
2021/12/07 12:34:35;;;;;;;42.50;31.17;;;8.10;75.30;;;;;;5009590;28;20232;-81
2021/12/07 12:37:11;;;;;;;57.10;36.30;;;8.20;76.10;;;;;;5009354;28;20201;-75
2021/12/07 12:39:50;;;;;;;39.07;32.03;;;8.20;75.20;;;;;;5009194;28;20845;-77
2021/12/07 12:42:24;;;;;;;57.93;33.50;;;8.20;75.30;;;;;;5008786;28;20292;-78
2021/12/07 12:44:57;;;;;;;48.07;31.03;;;8.20;75.30;;;;;;5008768;28;20344;-79
2021/12/07 12:47:26;;;;;;;47.70;36.20;;;8.20;75.30;;;;;;4990786;28;20246;-75
2021/12/07 12:49:53;;;;;;;39.37;35.13;;;8.20;75.40;;;;;;4989422;28;20201;-76
2021/12/07 12:52:39;;;;;;;45.37;35.27;;;8.30;75.40;;;;;;4989629;28;20223;-76
2021/12/07 12:55:07;;;;;;;49.77;31.77;;;8.30;75.20;;;;;;4993946;28;20220;-76
2021/12/07 12:57:49;;;;;;;38.53;30.47;;;8.30;75.30;;;;;;5008932;28;20258;-76
2021/12/07 13:00:16;;;;;;;40.10;30.60;;;8.30;75.20;;;;;;5009287;28;20469;-79
2021/12/07 13:02:50;;;;;;;37.53;31.17;;;8.30;75.20;;;;;;5009089;28;20224;-76
2021/12/07 13:05:18;;;;;;;43.97;36.03;;;8.30;75.30;;;;;;5008496;28;20340;-76
2021/12/07 13:07:46;;;;;;;33.97;27.73;;;8.30;75.20;;;;;;5007861;28;20212;-78
2021/12/07 13:10:13;;;;;;;48.77;31.60;;;8.30;75.20;;;;;;5008313;28;20226;-64
2021/12/07 13:12:41;;;;;;;35.40;31.37;;;8.30;75.20;;;;;;5007431;28;20231;-77
2021/12/07 13:15:09;;;;;;;44.43;30.80;;;8.40;75.40;;;;;;5009061;28;20223;-71
2021/12/07 13:17:41;;;;;;;42.70;28.97;;;8.40;75.40;;;;;;5005902;28;20231;-75
2021/12/07 13:20:29;;;;;;;77.70;33.77;;;8.40;75.30;;;;;;5006299;28;20286;-76
2021/12/07 13:23:07;;;;;;;38.17;31.40;;;8.40;75.20;;;;;;4989374;28;20230;-78
2021/12/07 13:25:37;;;;;;;42.93;33.23;;;8.40;75.10;;;;;;5008559;28;20711;-72
2021/12/07 13:28:11;;;;;;;50.13;30.27;;;8.40;75.10;;;;;;5007700;28;20713;-68
2021/12/07 13:30:50;;;;;;;34.60;30.53;;;8.40;75.00;;;;;;5008370;28;20190;-75
2021/12/07 13:33:19;;;;;;;51.43;33.43;;;8.40;75.00;;;;;;4999331;28;20974;-74
2021/12/07 13:35:47;;;;;;;45.67;34.30;;;8.40;74.90;;;;;;4988928;28;20214;-75
2021/12/07 13:38:20;;;;;;;39.03;34.57;;;8.50;74.90;;;;;;5006352;28;20274;-76
2021/12/07 13:40:47;;;;;;;37.10;31.93;;;8.50;74.90;;;;;;5007741;28;20270;-75
2021/12/07 13:43:30;;;;;;;52.80;33.40;;;8.40;74.90;;;;;;5007452;28;20307;-76
2021/12/07 13:46:12;;;;;;;55.57;34.23;;;8.50;74.90;;;;;;5009970;28;20218;-75
2021/12/07 13:48:40;;;;;;;64.23;31.83;;;8.50;74.70;;;;;;5010172;28;20257;-75
2021/12/07 13:51:08;;;;;;;59.97;33.43;;;8.50;74.70;;;;;;5013640;28;20316;-76
2021/12/07 13:53:38;;;;;;;39.33;31.77;;;8.50;74.70;;;;;;5016385;28;20227;-76
2021/12/07 13:56:07;;;;;;;45.07;34.03;;;8.50;74.60;;;;;;5015583;28;20626;-77
2021/12/07 13:58:54;;;;;;;36.50;25.80;;;8.50;74.60;;;;;;5016364;28;20272;-76
2021/12/07 14:01:22;;;;;;;64.43;32.13;;;8.50;74.50;;;;;;5013602;28;20198;-81
2021/12/07 14:03:49;;;;;;;45.53;28.50;;;8.50;74.60;;;;;;5014794;28;20313;-75
2021/12/07 14:06:16;;;;;;;37.50;30.47;;;8.50;74.60;;;;;;5013267;28;20320;-75
2021/12/07 14:08:44;;;;;;;48.33;31.20;;;8.50;74.60;;;;;;5015034;28;20284;-76
2021/12/07 14:11:14;;;;;;;45.53;29.33;;;8.50;74.50;;;;;;5013239;28;20573;-79
2021/12/07 14:13:42;;;;;;;45.50;27.10;;;8.50;74.60;;;;;;5015750;28;20228;-76
2021/12/07 14:16:09;;;;;;;66.83;34.67;;;8.60;74.70;;;;;;5015567;28;20204;-76